Time;durP1;ratioP1;P1;durP2;ratioP2;P2;SDS_P1;SDS_P2;PMS_P1;PMS_P2;Temp;Humidity;BMP_temperature;BMP_pressure;BME280_temperature;BME280_humidity;BME280_pressure;Samples;Min_cycle;Max_cycle;Signal;HPM_P1;HPM_P2
2023/03/21 00:01:18;;;;;;;22.50;11.93;;;;;;;13.18;59.51;99839.63;5079420;28;20036;-65
2023/03/21 00:03:45;;;;;;;21.48;13.10;;;;;;;13.21;59.69;99841.94;5078257;28;20032;-64
2023/03/21 00:06:12;;;;;;;22.40;13.73;;;;;;;13.18;59.14;99838.81;5075997;28;20308;-68
2023/03/21 00:08:38;;;;;;;21.67;13.85;;;;;;;13.17;60.08;99834.50;5074079;28;20021;-68
2023/03/21 00:11:06;;;;;;;18.75;13.25;;;;;;;13.21;59.55;99825.97;5077645;28;20410;-64
2023/03/21 00:13:32;;;;;;;22.00;14.15;;;;;;;13.23;59.56;99829.28;5077942;28;20041;-65
2023/03/21 00:16:05;;;;;;;19.55;12.93;;;;;;;13.12;59.21;99824.34;5076957;28;20049;-65
2023/03/21 00:18:31;;;;;;;25.67;14.80;;;;;;;12.48;60.36;99815.69;5076921;28;20040;-63
2023/03/21 00:20:58;;;;;;;24.63;12.98;;;;;;;11.79;62.64;99812.75;5077693;28;20486;-69
2023/03/21 00:23:25;;;;;;;20.90;12.95;;;;;;;11.96;62.17;99826.00;5077660;28;20071;-65
2023/03/21 00:25:51;;;;;;;23.45;13.55;;;;;;;12.07;62.44;99825.63;5078449;28;20252;-64
2023/03/21 00:28:16;;;;;;;21.13;13.38;;;;;;;12.13;62.67;99819.66;5078189;28;20294;-68
2023/03/21 00:30:42;;;;;;;23.33;13.27;;;;;;;12.30;62.50;99804.50;5077908;28;20036;-64
2023/03/21 00:33:07;;;;;;;21.40;13.25;;;;;;;12.00;62.99;99809.56;5077054;28;20033;-64
2023/03/21 00:35:33;;;;;;;20.35;12.60;;;;;;;11.96;63.51;99802.09;5075793;28;20281;-68
2023/03/21 00:37:58;;;;;;;19.58;13.32;;;;;;;12.13;62.90;99795.75;5079265;28;20353;-68
2023/03/21 00:40:24;;;;;;;22.35;13.50;;;;;;;12.25;61.48;99796.22;5076826;28;20325;-64
2023/03/21 00:42:49;;;;;;;24.98;14.77;;;;;;;12.33;62.42;99799.66;5078605;28;20234;-69
2023/03/21 00:45:15;;;;;;;29.88;15.60;;;;;;;12.43;61.64;99799.47;5078471;28;20020;-68
2023/03/21 00:47:40;;;;;;;24.67;14.88;;;;;;;12.55;61.49;99795.44;5077769;28;20406;-64
2023/03/21 00:50:07;;;;;;;21.52;13.25;;;;;;;12.65;60.34;99796.06;5076576;28;20036;-68
2023/03/21 00:52:32;;;;;;;22.60;15.07;;;;;;;12.61;60.59;99791.28;5077666;28;20448;-68
2023/03/21 00:54:57;;;;;;;27.15;15.68;;;;;;;12.64;60.51;99781.13;5075708;28;20207;-64
2023/03/21 00:57:23;;;;;;;21.15;14.00;;;;;;;12.61;60.88;99772.69;5078040;28;20074;-68
2023/03/21 00:59:48;;;;;;;23.85;14.25;;;;;;;12.58;61.45;99768.53;5076332;28;20093;-69
2023/03/21 01:02:25;;;;;;;26.98;15.13;;;;;;;12.33;62.04;99762.50;5075459;28;20066;-65
2023/03/21 01:04:54;;;;;;;26.48;14.55;;;;;;;11.89;63.31;99764.81;5076107;28;20028;-64
2023/03/21 01:07:19;;;;;;;21.80;13.65;;;;;;;11.68;64.12;99767.97;5073161;28;20094;-64
2023/03/21 01:09:45;;;;;;;23.10;14.68;;;;;;;11.71;65.44;99762.34;5077113;28;20024;-67
2023/03/21 01:12:10;;;;;;;27.92;14.18;;;;;;;11.91;64.23;99759.34;5076525;28;20052;-68
2023/03/21 01:14:36;;;;;;;30.88;16.60;;;;;;;12.02;63.58;99766.94;5074881;28;20055;-64
2023/03/21 01:17:02;;;;;;;33.03;16.17;;;;;;;12.14;63.58;99760.25;5077513;28;20059;-69
2023/03/21 01:19:29;;;;;;;22.95;14.43;;;;;;;12.27;62.43;99760.53;5075643;28;20033;-65
2023/03/21 01:21:55;;;;;;;24.13;14.80;;;;;;;12.27;62.61;99759.69;5076903;28;20112;-68
2023/03/21 01:24:21;;;;;;;43.25;23.05;;;;;;;12.28;62.75;99759.53;5076490;28;20060;-64
2023/03/21 01:26:46;;;;;;;44.80;23.50;;;;;;;12.29;62.74;99750.56;5074859;28;20288;-69
2023/03/21 01:29:12;;;;;;;41.42;22.50;;;;;;;12.40;62.80;99749.34;5075071;28;20083;-68
2023/03/21 01:31:38;;;;;;;25.88;14.55;;;;;;;12.49;62.13;99743.03;5075972;28;20041;-64
2023/03/21 01:34:03;;;;;;;21.90;14.93;;;;;;;12.50;62.44;99741.19;5076677;28;20043;-64
2023/03/21 01:36:29;;;;;;;24.50;15.40;;;;;;;12.34;63.37;99739.41;5076827;28;20040;-64
2023/03/21 01:38:54;;;;;;;20.23;12.80;;;;;;;12.06;65.82;99737.22;5076192;28;20077;-69
2023/03/21 01:41:31;;;;;;;21.15;13.30;;;;;;;11.76;66.17;99737.94;5077072;28;20044;-64
2023/03/21 01:43:58;;;;;;;20.88;14.05;;;;;;;11.40;68.18;99729.53;5075867;28;20137;-64
2023/03/21 01:46:27;;;;;;;20.98;12.73;;;;;;;10.93;71.36;99724.09;5075959;28;20041;-68
2023/03/21 01:49:03;;;;;;;23.10;13.68;;;;;;;11.12;70.45;99724.59;5074586;28;20029;-69
2023/03/21 01:51:33;;;;;;;21.33;12.50;;;;;;;11.11;70.31;99730.88;5074438;28;20078;-64
2023/03/21 01:54:00;;;;;;;22.85;13.32;;;;;;;11.05;69.91;99726.25;5076109;28;20090;-68
2023/03/21 01:56:32;;;;;;;21.15;13.68;;;;;;;11.18;69.64;99726.56;5075476;28;20403;-64
2023/03/21 01:59:33;;;;;;;21.17;12.68;;;;;;;11.42;68.32;99716.94;5075487;28;20103;-69
2023/03/21 02:02:06;;;;;;;21.90;12.45;;;;;;;11.68;67.74;99722.88;5070180;28;20411;-68
2023/03/21 02:04:33;;;;;;;19.67;12.23;;;;;;;11.79;66.57;99719.06;5076534;28;20086;-68
2023/03/21 02:07:12;;;;;;;18.42;12.00;;;;;;;11.67;66.62;99707.13;5074401;28;20040;-68
2023/03/21 02:09:41;;;;;;;20.45;12.93;;;;;;;11.62;66.20;99709.47;5070226;28;20301;-64
2023/03/21 02:12:08;;;;;;;18.50;12.77;;;;;;;11.66;65.43;99701.00;5075327;28;20104;-68
2023/03/21 02:14:36;;;;;;;20.55;13.13;;;;;;;11.61;65.64;99706.00;5075854;28;20055;-68
2023/03/21 02:17:22;;;;;;;19.50;12.18;;;;;;;11.52;66.88;99705.19;5074917;28;20028;-65
2023/03/21 02:20:07;;;;;;;19.55;11.75;;;;;;;11.43;66.87;99710.63;5075838;28;20033;-69
2023/03/21 02:22:57;;;;;;;18.48;12.13;;;;;;;11.19;68.92;99707.03;5071394;28;20342;-64
2023/03/21 02:25:42;;;;;;;20.10;12.30;;;;;;;11.01;70.77;99701.06;5073909;28;20099;-68
2023/03/21 02:28:20;;;;;;;18.67;11.23;;;;;;;10.93;70.91;99706.38;5074118;28;20033;-68
2023/03/21 02:31:05;;;;;;;21.08;11.35;;;;;;;10.67;72.84;99703.03;5073149;28;20048;-68
2023/03/21 02:33:52;;;;;;;19.05;11.82;;;;;;;10.74;73.30;99704.88;5074524;28;20034;-69
2023/03/21 02:36:26;;;;;;;20.52;12.65;;;;;;;10.82;73.11;99704.88;5074462;28;20108;-68
2023/03/21 02:38:51;;;;;;;20.60;12.48;;;;;;;10.92;72.42;99696.75;5074095;28;20344;-68
2023/03/21 02:41:34;;;;;;;21.02;12.55;;;;;;;10.79;73.79;99701.72;5075342;28;20048;-69
2023/03/21 02:44:13;;;;;;;21.40;12.65;;;;;;;10.60;75.74;99708.16;5075972;28;20047;-64
2023/03/21 02:46:48;;;;;;;21.92;12.48;;;;;;;10.92;74.71;99706.53;5075956;28;20044;-69
2023/03/21 02:49:26;;;;;;;21.25;12.35;;;;;;;11.05;74.06;99706.88;5076056;28;21766;-64
2023/03/21 02:51:55;;;;;;;24.02;12.63;;;;;;;11.19;74.38;99720.28;5074823;28;20078;-68
2023/03/21 02:54:23;;;;;;;22.52;13.77;;;;;;;11.28;74.87;99721.09;5076302;28;20024;-69
2023/03/21 02:56:51;;;;;;;19.83;13.48;;;;;;;11.51;74.00;99723.91;5075422;28;20294;-63
2023/03/21 02:59:20;;;;;;;22.27;13.00;;;;;;;11.68;73.28;99727.34;5074570;28;20081;-68
2023/03/21 03:01:45;;;;;;;22.20;13.55;;;;;;;11.78;72.12;99720.91;5072295;28;20058;-68
2023/03/21 03:04:26;;;;;;;20.58;12.50;;;;;;;11.98;71.65;99729.28;5075341;28;20036;-68
2023/03/21 03:06:57;;;;;;;24.17;12.95;;;;;;;12.09;70.51;99736.88;5072380;28;20353;-64
2023/03/21 03:09:42;;;;;;;20.35;12.80;;;;;;;12.13;70.77;99726.75;5076579;28;20068;-64
2023/03/21 03:12:31;;;;;;;42.22;19.58;;;;;;;12.11;70.11;99729.56;5066837;28;20068;-64
2023/03/21 03:15:20;;;;;;;24.90;14.35;;;;;;;12.05;70.14;99724.94;5072974;28;20058;-64
2023/03/21 03:18:05;;;;;;;21.00;13.20;;;;;;;11.95;71.68;99721.66;5071998;28;20103;-64
2023/03/21 03:20:36;;;;;;;;;;;;;;;11.96;71.88;99722.50;5073452;28;20348;-64
2023/03/21 03:23:19;;;;;;;24.00;13.82;;;;;;;12.07;71.07;99727.44;5072873;28;20331;-64
2023/03/21 03:26:16;;;;;;;54.35;24.17;;;;;;;12.20;70.25;99725.06;5076331;28;20403;-68
2023/03/21 03:28:47;;;;;;;30.50;15.05;;;;;;;12.21;70.46;99731.19;5074521;28;20166;-65
2023/03/21 03:31:20;;;;;;;20.17;12.77;;;;;;;12.08;70.52;99731.75;5075278;28;20067;-65
2023/03/21 03:33:50;;;;;;;25.77;15.47;;;;;;;11.92;71.44;99729.97;5070817;28;20168;-68
2023/03/21 03:36:17;;;;;;;148.40;55.63;;;;;;;12.02;70.88;99730.59;5074112;28;20048;-64
2023/03/21 03:38:46;;;;;;;33.45;17.95;;;;;;;11.94;70.81;99741.25;5073870;28;20048;-64
2023/03/21 03:41:20;;;;;;;26.70;14.38;;;;;;;11.90;70.79;99736.44;5076170;28;20070;-68
2023/03/21 03:43:52;;;;;;;24.40;14.55;;;;;;;11.70;72.03;99733.31;5078809;28;20048;-68
2023/03/21 03:46:50;;;;;;;24.25;13.65;;;;;;;11.72;71.22;99732.16;5073484;28;20036;-64
2023/03/21 03:49:30;;;;;;;22.60;13.50;;;;;;;11.75;71.27;99731.00;5080590;28;20037;-64
2023/03/21 03:52:08;;;;;;;20.10;13.07;;;;;;;11.66;71.14;99738.13;5079940;28;20219;-68
2023/03/21 03:54:41;;;;;;;29.08;15.48;;;;;;;11.58;70.90;99727.53;5077296;28;20593;-64
2023/03/21 03:57:07;;;;;;;23.02;13.70;;;;;;;11.57;71.17;99725.06;5078414;28;20048;-64
2023/03/21 03:59:37;;;;;;;21.58;13.70;;;;;;;11.54;71.69;99730.69;5079249;28;20024;-68
2023/03/21 04:02:03;;;;;;;24.17;13.52;;;;;;;11.56;71.48;99736.66;5072410;28;20079;-64
2023/03/21 04:04:30;;;;;;;24.70;15.05;;;;;;;11.67;70.16;99731.00;5079558;28;20032;-68
2023/03/21 04:06:56;;;;;;;22.88;14.95;;;;;;;11.66;70.21;99726.69;5079554;28;20233;-67
2023/03/21 04:09:22;;;;;;;23.17;12.52;;;;;;;11.80;69.95;99723.38;5078472;28;20068;-68
2023/03/21 04:11:47;;;;;;;22.80;12.45;;;;;;;11.86;68.73;99716.56;5077007;28;20040;-68
2023/03/21 04:14:13;;;;;;;26.45;14.27;;;;;;;11.93;68.47;99720.19;5078871;28;20253;-65
2023/03/21 04:16:39;;;;;;;18.40;11.82;;;;;;;11.86;67.44;99728.00;5077551;28;20050;-68
2023/03/21 04:19:04;;;;;;;22.05;13.40;;;;;;;11.92;66.84;99726.50;5077133;28;20028;-68
2023/03/21 04:21:30;;;;;;;29.13;15.98;;;;;;;11.91;67.12;99725.66;5077726;28;20249;-68
2023/03/21 04:23:56;;;;;;;42.50;21.27;;;;;;;11.84;67.42;99735.31;5077907;28;20050;-63
2023/03/21 04:26:21;;;;;;;26.88;14.70;;;;;;;11.81;66.15;99739.13;5078711;28;20051;-69
2023/03/21 04:28:48;;;;;;;23.50;12.80;;;;;;;11.81;65.96;99741.78;5078992;28;20032;-64
2023/03/21 04:31:13;;;;;;;26.85;15.05;;;;;;;11.80;67.42;99744.59;5076104;28;20245;-64
2023/03/21 04:33:40;;;;;;;25.20;14.10;;;;;;;11.55;68.93;99745.63;5076303;28;20028;-68
2023/03/21 04:36:08;;;;;;;20.85;13.93;;;;;;;11.56;69.36;99747.28;5077643;28;20084;-64
2023/03/21 04:38:34;;;;;;;24.13;15.23;;;;;;;11.45;69.06;99748.44;5076093;28;20034;-68
2023/03/21 04:41:00;;;;;;;23.15;13.55;;;;;;;11.45;69.47;99748.44;5076030;28;20113;-63
2023/03/21 04:43:27;;;;;;;21.85;12.98;;;;;;;11.62;69.55;99749.25;5080229;28;20039;-65
2023/03/21 04:45:53;;;;;;;22.50;13.50;;;;;;;11.68;68.23;99740.63;5079233;28;20040;-68
2023/03/21 04:48:19;;;;;;;31.13;17.05;;;;;;;11.70;67.40;99752.72;5075122;28;20044;-64
2023/03/21 04:50:45;;;;;;;28.42;16.45;;;;;;;11.62;65.81;99759.84;5076769;28;20047;-68
2023/03/21 04:53:11;;;;;;;23.95;14.75;;;;;;;11.69;64.88;99761.66;5075628;28;20285;-64
2023/03/21 04:55:37;;;;;;;26.70;14.82;;;;;;;11.68;64.04;99764.50;5076836;28;20032;-68
2023/03/21 04:58:03;;;;;;;26.90;16.08;;;;;;;11.70;64.94;99765.97;5075137;28;20448;-68
2023/03/21 05:00:29;;;;;;;35.17;18.70;;;;;;;11.68;64.56;99767.16;5074865;28;20357;-68
2023/03/21 05:02:56;;;;;;;35.50;19.98;;;;;;;11.63;64.56;99765.00;5077798;28;20044;-64
2023/03/21 05:05:22;;;;;;;30.35;18.60;;;;;;;11.65;65.31;99767.47;5077300;28;20138;-64
2023/03/21 05:07:48;;;;;;;37.22;19.65;;;;;;;11.70;65.04;99765.16;5076673;28;20062;-64
2023/03/21 05:10:13;;;;;;;51.33;25.23;;;;;;;11.75;65.00;99770.78;5076788;28;20254;-64
2023/03/21 05:12:39;;;;;;;34.53;20.20;;;;;;;11.73;65.73;99770.94;5076848;28;20040;-68
2023/03/21 05:15:05;;;;;;;62.88;31.85;;;;;;;11.61;66.86;99764.34;5076075;28;20082;-68
2023/03/21 05:17:30;;;;;;;42.78;27.05;;;;;;;11.69;67.33;99759.00;5076594;28;20047;-69
2023/03/21 05:19:56;;;;;;;36.78;22.73;;;;;;;11.90;67.49;99770.94;5076096;28;20032;-68
2023/03/21 05:22:23;;;;;;;29.45;16.40;;;;;;;12.01;66.72;99773.22;5074631;28;20413;-64
2023/03/21 05:24:50;;;;;;;27.00;15.07;;;;;;;12.06;67.63;99769.06;5075927;28;20048;-65
2023/03/21 05:27:33;;;;;;;21.15;13.07;;;;;;;12.05;68.26;99772.72;5077041;28;20044;-65
2023/03/21 05:30:09;;;;;;;24.45;12.88;;;;;;;12.06;68.96;99774.38;5075258;28;20031;-64
2023/03/21 05:32:34;;;;;;;26.85;13.70;;;;;;;11.92;69.63;99764.47;5075554;28;20033;-64
2023/03/21 05:35:00;;;;;;;27.33;13.35;;;;;;;11.74;71.97;99769.13;5076580;28;20036;-65
2023/03/21 05:37:26;;;;;;;24.52;13.75;;;;;;;11.31;74.42;99770.28;5075962;28;20044;-69
2023/03/21 05:39:52;;;;;;;24.70;14.02;;;;;;;11.22;76.48;99756.22;5076271;28;20040;-69
2023/03/21 05:42:18;;;;;;;24.65;14.75;;;;;;;10.94;78.07;99765.47;5075107;28;20037;-65
2023/03/21 05:44:44;;;;;;;19.45;14.02;;;;;;;10.69;81.53;99762.78;5076132;28;20039;-68
2023/03/21 05:47:14;;;;;;;26.10;15.25;;;;;;;10.58;81.79;99756.97;5075814;28;20459;-68
2023/03/21 05:49:40;;;;;;;25.40;14.82;;;;;;;10.84;80.64;99757.69;5074857;28;20034;-68
2023/03/21 05:52:06;;;;;;;26.90;15.02;;;;;;;10.58;83.40;99765.75;5075896;28;20036;-65
2023/03/21 05:54:32;;;;;;;28.50;15.10;;;;;;;10.56;83.36;99757.13;5074177;28;20039;-64
2023/03/21 05:56:57;;;;;;;25.52;14.88;;;;;;;10.22;86.57;99760.63;5076194;28;20040;-68
2023/03/21 05:59:22;;;;;;;22.60;13.63;;;;;;;10.24;87.55;99763.94;5074660;28;20041;-65
2023/03/21 06:01:48;;;;;;;25.52;13.93;;;;;;;10.22;89.54;99775.69;5075630;28;20047;-64
2023/03/21 06:04:13;;;;;;;21.45;12.75;;;;;;;10.24;89.03;99771.06;5073944;28;20024;-65
2023/03/21 06:06:39;;;;;;;23.45;13.43;;;;;;;10.47;88.78;99780.09;5076154;28;20040;-68
2023/03/21 06:09:05;;;;;;;27.58;14.70;;;;;;;10.24;90.12;99771.06;5075133;28;20029;-64
2023/03/21 06:11:34;;;;;;;27.80;15.10;;;;;;;10.13;90.86;99785.38;5076135;28;20356;-65
2023/03/21 06:14:00;;;;;;;25.77;14.95;;;;;;;10.13;91.46;99777.44;5076145;28;20553;-65
2023/03/21 06:16:27;;;;;;;24.90;15.18;;;;;;;10.24;91.37;99774.53;5074725;28;20079;-64
2023/03/21 06:18:53;;;;;;;27.75;16.08;;;;;;;10.24;90.86;99771.06;5076774;28;20186;-65
2023/03/21 06:21:19;;;;;;;27.20;15.52;;;;;;;10.40;90.81;99762.34;5074926;28;20048;-64
2023/03/21 06:23:45;;;;;;;24.77;14.85;;;;;;;10.53;90.55;99765.41;5076157;28;20036;-68
2023/03/21 06:26:11;;;;;;;26.83;14.13;;;;;;;10.71;90.11;99768.75;5074069;28;20036;-65
2023/03/21 06:28:37;;;;;;;25.98;14.70;;;;;;;10.62;90.16;99764.44;5076031;28;20028;-68
2023/03/21 06:31:03;;;;;;;23.30;13.48;;;;;;;10.78;90.33;99767.09;5074645;28;20146;-64
2023/03/21 06:33:29;;;;;;;24.30;13.35;;;;;;;10.68;89.96;99765.59;5075808;28;20074;-64
2023/03/21 06:35:57;;;;;;;24.73;13.80;;;;;;;10.90;89.08;99764.97;5073669;28;20043;-69
2023/03/21 06:38:23;;;;;;;26.55;13.75;;;;;;;10.81;91.63;99764.13;5075625;28;20036;-63
2023/03/21 06:40:49;;;;;;;28.80;15.38;;;;;;;10.86;90.86;99763.66;5075208;28;20043;-68
2023/03/21 06:43:15;;;;;;;27.88;14.63;;;;;;;10.86;90.50;99768.94;5075215;28;20341;-64
2023/03/21 06:45:41;;;;;;;27.38;14.73;;;;;;;10.91;90.92;99763.16;5076305;28;20043;-64
2023/03/21 06:48:07;;;;;;;29.30;15.13;;;;;;;11.05;90.19;99765.16;5076595;28;20247;-64
2023/03/21 06:50:32;;;;;;;29.25;15.80;;;;;;;11.20;90.04;99763.50;5075591;28;20040;-68
2023/03/21 06:52:58;;;;;;;25.95;15.20;;;;;;;11.23;89.34;99762.34;5074506;28;20086;-64
2023/03/21 06:55:25;;;;;;;25.85;14.68;;;;;;;11.35;89.14;99761.03;5074270;28;20025;-64
2023/03/21 06:57:55;;;;;;;25.17;13.85;;;;;;;11.15;88.18;99758.69;5075279;28;20435;-68
2023/03/21 07:00:22;;;;;;;30.85;14.93;;;;;;;11.42;88.19;99759.34;5074909;28;20052;-69
2023/03/21 07:02:48;;;;;;;26.13;14.65;;;;;;;11.49;86.80;99758.56;5075314;28;20342;-63
2023/03/21 07:05:14;;;;;;;28.23;14.90;;;;;;;11.47;88.18;99760.53;5074208;28;20354;-68
2023/03/21 07:07:39;;;;;;;28.48;14.93;;;;;;;11.68;87.01;99769.78;5073754;28;20106;-68
2023/03/21 07:10:06;;;;;;;28.23;15.30;;;;;;;11.85;86.52;99770.63;5076719;28;20041;-65
2023/03/21 07:12:34;;;;;;;28.83;15.05;;;;;;;11.79;86.63;99775.59;5070109;28;20289;-68
2023/03/21 07:15:04;;;;;;;30.50;15.75;;;;;;;12.08;84.35;99774.19;5075210;28;20066;-68
2023/03/21 07:17:29;;;;;;;28.77;14.30;;;;;;;12.07;83.37;99769.91;5078060;28;20059;-64
2023/03/21 07:19:55;;;;;;;25.92;14.40;;;;;;;11.74;86.13;99772.59;5079013;28;20054;-69
2023/03/21 07:22:21;;;;;;;25.85;14.93;;;;;;;12.08;85.48;99771.56;5077984;28;20112;-69
2023/03/21 07:24:47;;;;;;;24.35;14.90;;;;;;;12.06;84.77;99763.75;5078211;28;20028;-68
2023/03/21 07:27:14;;;;;;;25.95;14.27;;;;;;;12.19;85.16;99773.00;5078437;28;20216;-65
2023/03/21 07:29:40;;;;;;;28.52;14.38;;;;;;;12.40;82.87;99771.41;5077463;28;20107;-68
2023/03/21 07:32:06;;;;;;;27.05;14.60;;;;;;;12.34;82.49;99768.63;5079043;28;20079;-68
2023/03/21 07:34:32;;;;;;;26.60;16.52;;;;;;;12.57;83.50;99769.53;5077318;28;20028;-64
2023/03/21 07:36:59;;;;;;;24.02;14.93;;;;;;;12.88;81.52;99766.03;5079095;28;20040;-68
2023/03/21 07:39:25;;;;;;;23.58;14.13;;;;;;;13.32;77.98;99771.56;5076781;28;20032;-64
2023/03/21 07:41:50;;;;;;;26.88;13.68;;;;;;;13.63;76.47;99766.16;5080013;28;20356;-68
2023/03/21 07:44:16;;;;;;;19.70;13.38;;;;;;;13.97;75.06;99757.66;5077832;28;20040;-68
2023/03/21 07:46:41;;;;;;;25.75;14.35;;;;;;;14.27;73.49;99761.94;5077821;28;20042;-68
2023/03/21 07:49:07;;;;;;;25.20;14.05;;;;;;;14.31;72.35;99762.41;5078713;28;20045;-65
2023/03/21 07:51:34;;;;;;;24.33;14.25;;;;;;;14.47;72.07;99754.22;5078414;28;20361;-65
2023/03/21 07:54:00;;;;;;;23.10;13.45;;;;;;;14.67;71.03;99759.81;5079104;28;20028;-66
2023/03/21 07:56:27;;;;;;;23.23;13.43;;;;;;;14.77;70.68;99760.34;5077758;28;20308;-65
2023/03/21 07:58:52;;;;;;;23.90;13.98;;;;;;;14.51;70.58;99758.19;5078433;28;21545;-65
2023/03/21 08:01:17;;;;;;;25.48;14.70;;;;;;;14.53;70.66;99747.31;5076678;28;20028;-69
2023/03/21 08:03:43;;;;;;;22.73;14.02;;;;;;;14.38;72.79;99752.66;5077589;28;20327;-65
2023/03/21 08:06:09;;;;;;;22.60;14.57;;;;;;;14.26;71.93;99756.81;5077861;28;20029;-65
2023/03/21 08:08:34;;;;;;;29.38;15.65;;;;;;;14.26;72.81;99746.97;5078221;28;20728;-65
2023/03/21 08:11:00;;;;;;;23.00;15.07;;;;;;;14.48;72.40;99747.88;5076524;28;20028;-69
2023/03/21 08:13:26;;;;;;;25.02;14.23;;;;;;;14.59;71.03;99749.28;5078209;28;20024;-69
2023/03/21 08:15:52;;;;;;;29.02;16.13;;;;;;;14.29;71.92;99753.78;5075927;28;20044;-69
2023/03/21 08:18:17;;;;;;;24.73;14.38;;;;;;;14.39;71.78;99746.31;5077496;28;20038;-69
2023/03/21 08:20:43;;;;;;;21.27;13.32;;;;;;;14.28;72.30;99742.28;5076602;28;20055;-68
2023/03/21 08:23:08;;;;;;;19.73;13.20;;;;;;;14.36;71.13;99744.84;5078018;28;20024;-64
2023/03/21 08:25:34;;;;;;;25.40;13.20;;;;;;;14.53;70.61;99737.50;5076812;28;20052;-65
2023/03/21 08:27:59;;;;;;;23.65;13.73;;;;;;;14.81;69.94;99740.28;5076380;28;20324;-65
2023/03/21 08:30:27;;;;;;;24.45;13.55;;;;;;;14.63;70.16;99740.72;5077078;28;20364;-68
2023/03/21 08:32:59;;;;;;;21.60;12.93;;;;;;;14.71;69.12;99741.63;5075166;28;20350;-69
2023/03/21 08:35:25;;;;;;;24.50;12.65;;;;;;;14.81;68.34;99737.63;5076698;28;20332;-68
2023/03/21 08:37:52;;;;;;;22.27;13.80;;;;;;;14.64;67.98;99737.03;5075186;28;20025;-64
2023/03/21 08:40:19;;;;;;;23.33;12.90;;;;;;;14.80;67.74;99743.16;5076861;28;20040;-64
2023/03/21 08:42:45;;;;;;;21.02;11.95;;;;;;;14.86;67.00;99751.22;5078473;28;20070;-64
2023/03/21 08:45:12;;;;;;;19.30;12.38;;;;;;;15.00;65.02;99753.00;5076554;28;20040;-66
2023/03/21 08:47:38;;;;;;;19.05;12.23;;;;;;;15.02;64.83;99739.47;5078590;28;20302;-69
2023/03/21 08:50:06;;;;;;;22.02;12.50;;;;;;;15.25;63.02;99739.25;5075727;28;20044;-69
2023/03/21 08:52:31;;;;;;;17.50;11.27;;;;;;;15.27;62.25;99730.06;5076370;28;20220;-64
2023/03/21 08:54:57;;;;;;;16.00;11.35;;;;;;;15.38;61.57;99731.38;5075841;28;20035;-69
2023/03/21 08:57:23;;;;;;;18.50;11.40;;;;;;;15.45;61.73;99726.09;5076617;28;20362;-69
2023/03/21 08:59:48;;;;;;;17.88;10.90;;;;;;;15.54;61.53;99731.09;5075473;28;20086;-65
2023/03/21 09:02:15;;;;;;;17.55;11.77;;;;;;;15.61;61.73;99734.69;5075697;28;20408;-69
2023/03/21 09:04:42;;;;;;;21.13;12.98;;;;;;;15.69;62.71;99724.88;5075857;28;20055;-64
2023/03/21 09:07:10;;;;;;;18.83;12.02;;;;;;;15.66;63.22;99723.41;5077945;28;20051;-70
2023/03/21 09:09:36;;;;;;;19.33;11.85;;;;;;;15.56;62.24;99718.38;5077015;28;20040;-69
2023/03/21 09:12:01;;;;;;;18.60;11.55;;;;;;;15.72;61.71;99719.97;5075126;28;20064;-69
2023/03/21 09:14:27;;;;;;;18.08;11.88;;;;;;;15.78;61.57;99721.84;5077733;28;20106;-69
2023/03/21 09:16:52;;;;;;;19.05;11.48;;;;;;;15.86;61.86;99718.22;5076873;28;20203;-69
2023/03/21 09:19:18;;;;;;;17.50;11.30;;;;;;;15.94;61.69;99718.88;5076979;28;20424;-65
2023/03/21 09:21:43;;;;;;;20.35;12.40;;;;;;;15.94;62.23;99708.19;5075940;28;20041;-69
2023/03/21 09:24:11;;;;;;;21.92;12.48;;;;;;;15.95;62.00;99709.00;5075794;28;20209;-69
2023/03/21 09:26:37;;;;;;;24.00;12.35;;;;;;;16.00;61.77;99711.91;5078611;28;20040;-69
2023/03/21 09:29:04;;;;;;;21.65;11.80;;;;;;;16.08;61.65;99710.94;5078873;28;20225;-65
2023/03/21 09:31:31;;;;;;;21.50;11.73;;;;;;;16.15;61.82;99711.78;5077799;28;20037;-65
2023/03/21 09:33:57;;;;;;;19.67;12.07;;;;;;;16.22;61.76;99708.09;5077254;28;20047;-69
2023/03/21 09:36:26;;;;;;;18.27;11.80;;;;;;;16.31;60.20;99710.59;5077529;28;20037;-65
2023/03/21 09:38:53;;;;;;;19.52;12.18;;;;;;;16.35;59.88;99699.31;5076263;28;20035;-69
2023/03/21 09:41:50;;;;;;;18.45;11.73;;;;;;;16.45;59.63;99710.47;5076963;28;20040;-69
2023/03/21 09:44:31;;;;;;;18.45;11.68;;;;;;;16.50;59.30;99707.19;5076261;28;20033;-69
2023/03/21 09:47:04;;;;;;;19.60;12.30;;;;;;;16.59;58.75;99703.28;5077841;28;20048;-65
2023/03/21 09:49:50;;;;;;;24.30;13.87;;;;;;;16.69;58.61;99698.44;5076701;28;20032;-65
2023/03/21 09:52:47;;;;;;;22.40;12.35;;;;;;;16.77;59.52;99700.94;5076685;28;20430;-69
2023/03/21 09:55:22;;;;;;;20.73;12.40;;;;;;;16.90;58.11;99700.13;5077226;28;20225;-65
2023/03/21 09:57:55;;;;;;;20.55;12.43;;;;;;;17.03;57.63;99702.00;5077101;28;20033;-65
2023/03/21 10:00:26;;;;;;;;;;;;;;;17.12;56.80;99693.56;5077723;28;20039;-69
2023/03/21 10:02:58;;;;;;;19.67;11.43;;;;;;;17.16;57.84;99702.00;5075305;28;20237;-70
2023/03/21 10:05:27;;;;;;;21.90;12.60;;;;;;;17.20;56.00;99689.84;5076259;28;20191;-66
2023/03/21 10:08:07;;;;;;;21.60;11.98;;;;;;;17.03;55.48;99678.75;5075814;28;20100;-67
2023/03/21 10:10:54;;;;;;;18.75;11.30;;;;;;;17.01;56.01;99675.44;5074245;28;20333;-62
2023/03/21 10:13:26;;;;;;;18.90;11.55;;;;;;;17.05;56.39;99676.69;5076574;28;20099;-66
2023/03/21 10:15:59;;;;;;;18.45;11.23;;;;;;;17.12;56.47;99674.00;5076657;28;20045;-66
2023/03/21 10:18:28;;;;;;;24.88;13.27;;;;;;;17.00;57.01;99676.47;5075989;28;20032;-70
2023/03/21 10:20:54;;;;;;;16.80;10.70;;;;;;;17.08;57.00;99676.28;5075728;28;20037;-70
2023/03/21 10:23:23;;;;;;;20.58;11.52;;;;;;;17.20;56.87;99676.47;5076000;28;20392;-66
2023/03/21 10:25:57;;;;;;;19.30;11.65;;;;;;;17.28;56.29;99670.91;5075106;28;20106;-65
2023/03/21 10:28:41;;;;;;;;;;;;;;;17.33;55.74;99665.75;5076079;28;20024;-69
2023/03/21 10:31:10;;;;;;;18.05;10.68;;;;;;;16.81;56.47;99659.38;5075387;28;20116;-70
2023/03/21 10:33:41;;;;;;;18.33;11.38;;;;;;;16.76;56.86;99664.53;5075384;28;20056;-69
2023/03/21 10:36:16;;;;;;;18.30;11.07;;;;;;;16.68;57.39;99661.22;5074602;28;20036;-65
2023/03/21 10:38:47;;;;;;;21.92;12.13;;;;;;;16.78;56.95;99661.66;5074902;28;20223;-69
2023/03/21 10:41:13;;;;;;;17.27;10.77;;;;;;;16.93;56.12;99656.94;5074685;28;20040;-70
2023/03/21 10:43:39;;;;;;;17.15;10.82;;;;;;;17.08;55.62;99649.53;5075612;28;20036;-69
2023/03/21 10:46:12;;;;;;;17.40;11.07;;;;;;;17.08;55.67;99636.16;5075349;28;20047;-65
2023/03/21 10:48:44;;;;;;;18.27;12.15;;;;;;;17.02;56.78;99636.16;5075273;28;20060;-70
2023/03/21 10:51:16;;;;;;;17.65;11.55;;;;;;;17.15;55.93;99642.31;5074196;28;20258;-66
2023/03/21 10:53:50;;;;;;;18.40;11.15;;;;;;;17.28;55.17;99640.66;5075309;28;20305;-70
2023/03/21 10:56:15;;;;;;;;;;;;;;;17.31;54.83;99637.56;5075619;28;20074;-69
2023/03/21 10:58:45;;;;;;;16.38;11.00;;;;;;;17.33;53.76;99630.16;5074700;28;19982;-65
2023/03/21 11:01:20;;;;;;;17.63;11.00;;;;;;;17.33;54.33;99619.44;5075172;28;20051;-65
2023/03/21 11:03:47;;;;;;;17.35;10.77;;;;;;;17.13;56.75;99622.16;5075267;28;20095;-65
2023/03/21 11:06:25;;;;;;;18.60;10.82;;;;;;;17.15;55.68;99614.72;5075289;28;20028;-66
2023/03/21 11:08:55;;;;;;;14.75;10.05;;;;;;;17.19;56.01;99598.06;5074398;28;20364;-66
2023/03/21 11:11:32;;;;;;;17.13;11.00;;;;;;;17.25;55.95;99599.06;5075305;28;20060;-70
2023/03/21 11:14:06;;;;;;;17.17;10.80;;;;;;;17.33;56.73;99590.00;5074744;28;20082;-69
2023/03/21 11:16:41;;;;;;;20.92;12.13;;;;;;;17.13;57.11;99603.41;5075841;28;20048;-67
2023/03/21 11:19:28;;;;;;;21.25;11.13;;;;;;;17.28;56.38;99595.97;5074603;28;20032;-69
2023/03/21 11:21:57;;;;;;;19.42;11.10;;;;;;;17.40;56.88;99578.25;5074763;28;20037;-65
2023/03/21 11:24:23;;;;;;;18.58;10.82;;;;;;;17.39;57.47;99575.78;5075906;28;20263;-65
2023/03/21 11:26:50;;;;;;;18.40;11.30;;;;;;;17.34;57.24;99559.53;5075686;28;20040;-70
2023/03/21 11:29:32;;;;;;;20.48;11.90;;;;;;;17.38;57.38;99550.88;5075720;28;20269;-66